createdAt,value
2018-11-22T00:08:30.559Z,960.4
2018-11-22T00:18:33.962Z,960.4
2018-11-22T00:28:37.388Z,960.5
2018-11-22T00:38:40.842Z,960.4
2018-11-22T00:48:44.291Z,960.5
2018-11-22T00:58:47.743Z,960.6
2018-11-22T01:08:51.194Z,960.8
2018-11-22T01:18:54.625Z,960.7
2018-11-22T01:28:58.083Z,961
2018-11-22T01:39:01.528Z,961.1
2018-11-22T01:49:04.976Z,960.8
2018-11-22T01:59:08.429Z,961
2018-11-22T02:09:11.899Z,961.1
2018-11-22T02:19:15.398Z,961.1
2018-11-22T02:29:18.837Z,961.1
2018-11-22T02:39:22.297Z,961.1
2018-11-22T02:49:25.741Z,961
2018-11-22T02:59:29.202Z,961.2
2018-11-22T03:09:32.672Z,961.2
2018-11-22T03:19:36.118Z,961.3
2018-11-22T03:29:39.581Z,961.4
2018-11-22T03:39:43.035Z,961.6
2018-11-22T03:49:50.857Z,961.8
2018-11-22T03:59:54.310Z,962
2018-11-22T04:09:57.787Z,962.1
2018-11-22T04:20:01.239Z,961.9
2018-11-22T04:30:04.663Z,961.7
2018-11-22T04:40:08.104Z,961.8
2018-11-22T04:50:11.547Z,962
2018-11-22T05:00:14.992Z,962.1
2018-11-22T05:10:18.468Z,962.4
2018-11-22T05:20:21.941Z,962.1
2018-11-22T05:30:25.383Z,962.5
2018-11-22T05:40:28.836Z,962.3
2018-11-22T05:50:32.248Z,962.4
2018-11-22T06:00:35.715Z,962.4
2018-11-22T06:10:39.160Z,962.2
2018-11-22T06:20:42.621Z,962.4
2018-11-22T06:30:46.068Z,962.3
2018-11-22T06:40:49.538Z,962.1
2018-11-22T06:50:53.966Z,962.1
2018-11-22T07:00:57.449Z,962.1
2018-11-22T07:11:00.916Z,961.9
2018-11-22T07:21:04.383Z,962.2
2018-11-22T07:31:07.842Z,962.1
2018-11-22T07:41:11.302Z,962.1
2018-11-22T07:51:14.779Z,962.1
2018-11-22T08:01:18.241Z,962.4
2018-11-22T08:11:21.680Z,962.3
2018-11-22T08:21:25.178Z,962.2
2018-11-22T08:31:28.633Z,962.3
2018-11-22T08:41:32.076Z,961.9
2018-11-22T08:51:35.536Z,962.4
2018-11-22T09:01:39.102Z,962.4
2018-11-22T09:11:42.543Z,962.3
2018-11-22T09:21:45.996Z,962.3
2018-11-22T09:31:49.451Z,962.3
2018-11-22T09:41:52.890Z,963.6
2018-11-22T09:51:56.324Z,962.5
2018-11-22T10:01:59.777Z,962.5
2018-11-22T10:12:03.216Z,962.3
2018-11-22T10:22:06.679Z,962.4
2018-11-22T10:32:10.126Z,962
2018-11-22T10:42:13.584Z,962
2018-11-22T10:52:17.032Z,961.9
2018-11-22T11:02:21.750Z,962
2018-11-22T11:12:25.895Z,961.7
2018-11-22T11:22:29.339Z,961.2
2018-11-22T11:32:32.771Z,961.6
2018-11-22T11:42:36.219Z,961.3
2018-11-22T11:52:39.622Z,961.5
2018-11-22T12:02:43.076Z,961.4
2018-11-22T12:12:46.524Z,961.4
2018-11-22T12:22:49.959Z,968.3
2018-11-22T12:32:53.430Z,968.2
2018-11-22T12:42:56.891Z,968
2018-11-22T12:53:00.312Z,968.2
2018-11-22T13:03:03.763Z,967.9
2018-11-22T13:13:07.239Z,967.8
2018-11-22T13:23:10.684Z,961.3
2018-11-22T13:33:14.128Z,968.2
2018-11-22T13:43:17.603Z,968.2
2018-11-22T13:53:21.040Z,968
2018-11-22T14:03:24.498Z,968.2
2018-11-22T14:13:27.940Z,968.1
2018-11-22T14:23:31.371Z,960.5
2018-11-22T14:33:34.841Z,968.1
2018-11-22T14:43:38.296Z,968.1
2018-11-22T14:53:41.738Z,967.9
2018-11-22T15:03:45.193Z,967.9
2018-11-22T15:13:48.649Z,967.8
2018-11-22T15:23:52.099Z,967.9
2018-11-22T15:33:55.558Z,968.1
2018-11-22T15:43:59.006Z,967.9
2018-11-22T15:54:02.477Z,968.1
2018-11-22T16:04:05.922Z,968.4
2018-11-22T16:14:09.385Z,968.2
2018-11-22T16:24:13.253Z,968.2
2018-11-22T16:34:17.726Z,968.4
2018-11-22T16:44:21.178Z,968.7
2018-11-22T16:54:24.616Z,968.9
2018-11-22T17:04:28.138Z,968.7
2018-11-22T17:14:31.583Z,961.9
2018-11-22T17:24:35.039Z,961.6
2018-11-22T17:34:38.487Z,961.7
2018-11-22T17:44:41.949Z,961.6
2018-11-22T17:54:45.401Z,961.7
2018-11-22T18:04:48.833Z,961.8
2018-11-22T18:14:52.273Z,962.1
2018-11-22T18:24:55.725Z,962
2018-11-22T18:34:59.189Z,961.8
2018-11-22T18:45:02.657Z,962
2018-11-22T18:55:06.130Z,961.9
2018-11-22T19:05:09.586Z,962
2018-11-22T19:15:12.999Z,962
2018-11-22T19:25:16.462Z,962
2018-11-22T19:35:19.930Z,962.3
2018-11-22T19:45:23.389Z,962.6
2018-11-22T19:55:26.848Z,963.1
2018-11-22T20:05:30.313Z,962.8
2018-11-22T20:15:33.972Z,963.1
2018-11-22T20:25:37.421Z,963
2018-11-22T20:35:40.897Z,963.4
2018-11-22T20:45:44.329Z,963.1
2018-11-22T20:55:47.809Z,963
2018-11-22T21:05:51.265Z,963.4
2018-11-22T21:15:54.769Z,963.5
2018-11-22T21:25:58.225Z,963.3
2018-11-22T21:36:01.693Z,963.4
2018-11-22T21:46:05.168Z,963.2
2018-11-22T21:56:08.595Z,963.4
2018-11-22T22:06:12.060Z,963.6
2018-11-22T22:16:15.495Z,963.6
2018-11-22T22:26:18.956Z,963.6
2018-11-22T22:36:22.416Z,963.9
2018-11-22T22:46:25.888Z,963.8
2018-11-22T22:56:29.337Z,963.9
2018-11-22T23:06:32.898Z,964.6
2018-11-22T23:16:36.337Z,964.5
2018-11-22T23:26:39.800Z,964.5
2018-11-22T23:36:43.254Z,964.3
2018-11-22T23:46:46.700Z,964.2
2018-11-22T23:56:50.163Z,964.5
